createdAt,value
2019-03-20T00:00:53.318Z,2.37
2019-03-20T00:01:53.339Z,2.30
2019-03-20T00:02:53.306Z,2.23
2019-03-20T00:03:53.291Z,2.08
2019-03-20T00:04:53.276Z,2.04
2019-03-20T00:05:53.262Z,1.90
2019-03-20T00:06:53.274Z,1.85
2019-03-20T00:07:53.241Z,1.94
2019-03-20T00:08:53.234Z,1.87
2019-03-20T00:09:53.233Z,1.87
2019-03-20T00:10:53.210Z,1.83
2019-03-20T00:11:53.228Z,1.85
2019-03-20T00:12:53.190Z,1.73
2019-03-20T00:13:53.166Z,1.93
2019-03-20T00:14:53.169Z,2.08
2019-03-20T00:15:53.157Z,2.10
2019-03-20T00:16:53.174Z,2.09
2019-03-20T00:17:53.138Z,2.10
2019-03-20T00:18:53.140Z,2.06
2019-03-20T00:19:53.111Z,2.09
2019-03-20T00:20:53.104Z,1.99
2019-03-20T00:21:53.123Z,1.99
2019-03-20T00:22:53.084Z,1.80
2019-03-20T00:23:53.073Z,1.89
2019-03-20T00:24:53.062Z,1.99
2019-03-20T00:25:53.050Z,2.13
2019-03-20T00:26:53.224Z,2.22
2019-03-20T00:27:53.033Z,2.30
2019-03-20T00:28:53.023Z,2.38
2019-03-20T00:29:53.010Z,2.48
2019-03-20T00:30:53.010Z,2.56
2019-03-20T00:31:52.989Z,2.58
2019-03-20T00:32:52.996Z,2.41
2019-03-20T00:33:52.968Z,2.40
2019-03-20T00:35:00.818Z,2.26
2019-03-20T00:35:53.950Z,2.22
2019-03-20T00:36:52.933Z,2.35
2019-03-20T00:37:52.950Z,2.34
2019-03-20T00:38:52.928Z,2.37
2019-03-20T00:39:52.906Z,2.28
2019-03-20T00:40:52.890Z,2.17
2019-03-20T00:41:52.887Z,2.02
2019-03-20T00:42:52.893Z,2.02
2019-03-20T00:43:52.864Z,1.94
2019-03-20T00:44:52.858Z,1.93
2019-03-20T00:45:52.843Z,1.89
2019-03-20T00:46:52.828Z,1.83
2019-03-20T00:47:52.847Z,1.90
2019-03-20T00:48:52.818Z,1.75
2019-03-20T00:49:52.794Z,1.76
2019-03-20T00:50:52.799Z,1.73
2019-03-20T00:51:52.778Z,1.65
2019-03-20T00:52:52.807Z,1.64
2019-03-20T00:53:52.755Z,1.72
2019-03-20T00:54:52.749Z,1.68
2019-03-20T00:55:52.734Z,1.83
2019-03-20T00:56:52.729Z,1.79
2019-03-20T00:57:52.749Z,1.76
2019-03-20T00:58:52.706Z,1.73
2019-03-20T00:59:52.695Z,1.52
2019-03-20T01:00:52.686Z,1.50
2019-03-20T01:01:52.675Z,1.47
2019-03-20T01:02:52.679Z,1.50
2019-03-20T01:03:52.650Z,1.40
2019-03-20T01:04:52.646Z,1.51
2019-03-20T01:05:52.629Z,1.58
2019-03-20T01:06:52.618Z,1.58
2019-03-20T01:07:52.639Z,1.57
2019-03-20T01:08:52.598Z,1.52
2019-03-20T01:09:52.588Z,1.46
2019-03-20T01:10:52.582Z,1.44
2019-03-20T01:11:52.566Z,1.37
2019-03-20T01:12:52.574Z,1.42
2019-03-20T01:13:52.553Z,1.33
2019-03-20T01:14:52.536Z,1.58
2019-03-20T01:15:52.526Z,1.62
2019-03-20T01:16:52.514Z,1.61
2019-03-20T01:17:52.534Z,1.57
2019-03-20T01:18:52.500Z,1.60
2019-03-20T01:19:52.496Z,1.57
2019-03-20T01:20:52.475Z,1.54
2019-03-20T01:21:52.463Z,1.52
2019-03-20T01:22:52.479Z,1.47
2019-03-20T01:23:52.439Z,1.43
2019-03-20T01:24:52.435Z,1.50
2019-03-20T01:25:52.433Z,1.50
2019-03-20T01:26:52.411Z,1.44
2019-03-20T01:27:52.433Z,1.34
2019-03-20T01:28:52.390Z,1.36
2019-03-20T01:29:52.378Z,1.39
2019-03-20T01:30:52.372Z,1.37
2019-03-20T01:31:52.359Z,1.51
2019-03-20T01:32:52.377Z,1.60
2019-03-20T01:33:54.828Z,1.69
2019-03-20T01:34:52.327Z,1.61
2019-03-20T01:35:52.319Z,1.72
2019-03-20T01:36:52.310Z,1.73
2019-03-20T01:37:52.323Z,1.61
2019-03-20T01:38:52.286Z,1.64
2019-03-20T01:39:52.275Z,1.60
2019-03-20T01:40:52.263Z,1.60
2019-03-20T01:41:52.255Z,1.54
2019-03-20T01:42:52.270Z,1.50
2019-03-20T01:43:52.236Z,1.47
2019-03-20T01:44:52.232Z,1.37
2019-03-20T01:45:52.210Z,1.36
2019-03-20T01:46:52.193Z,1.28
2019-03-20T01:47:52.220Z,1.39
2019-03-20T01:48:52.185Z,1.26
2019-03-20T01:49:52.167Z,1.18
2019-03-20T01:50:52.159Z,1.18
2019-03-20T01:51:52.150Z,1.16
2019-03-20T01:52:52.157Z,1.00
2019-03-20T01:53:52.128Z,1.03
2019-03-20T01:54:52.124Z,1.06
2019-03-20T01:55:52.111Z,1.03
2019-03-20T01:56:52.101Z,1.12
2019-03-20T01:57:52.115Z,1.01
2019-03-20T01:58:52.079Z,1.06
2019-03-20T01:59:52.065Z,1.16
2019-03-20T02:00:52.062Z,1.15
2019-03-20T02:01:52.046Z,1.22
2019-03-20T02:02:52.083Z,1.22
2019-03-20T02:03:52.020Z,1.21
2019-03-20T02:04:52.013Z,1.07
2019-03-20T02:05:52.007Z,1.14
2019-03-20T02:06:51.990Z,1.07
2019-03-20T02:07:51.984Z,1.00
2019-03-20T02:08:52.006Z,1.01
2019-03-20T02:09:51.953Z,1.01
2019-03-20T02:10:51.955Z,1.04
2019-03-20T02:11:51.950Z,1.07
2019-03-20T02:12:51.937Z,1.08
2019-03-20T02:13:51.951Z,1.03
2019-03-20T02:14:51.907Z,1.04
2019-03-20T02:15:51.902Z,1.19
2019-03-20T02:16:51.888Z,1.32
2019-03-20T02:17:51.890Z,1.40
2019-03-20T02:18:51.897Z,1.39
2019-03-20T02:19:51.843Z,1.61
2019-03-20T02:20:51.848Z,1.76
2019-03-20T02:21:51.834Z,1.75
2019-03-20T02:22:51.814Z,1.73
2019-03-20T02:23:51.839Z,1.64
2019-03-20T02:24:51.802Z,1.54
2019-03-20T02:25:51.799Z,1.51
2019-03-20T02:26:51.782Z,1.54
2019-03-20T02:27:51.776Z,1.42
2019-03-20T02:28:51.793Z,1.51
2019-03-20T02:29:51.758Z,1.42
2019-03-20T02:30:51.741Z,1.37
2019-03-20T02:31:51.732Z,1.47
2019-03-20T02:32:51.730Z,1.29
2019-03-20T02:33:51.745Z,1.32
2019-03-20T02:34:51.698Z,1.26
2019-03-20T02:35:52.469Z,1.22
2019-03-20T02:36:51.670Z,1.19
2019-03-20T02:37:51.666Z,1.16
2019-03-20T02:38:51.687Z,1.08
2019-03-20T02:39:51.649Z,1.06
2019-03-20T02:40:51.636Z,0.94
2019-03-20T02:41:51.630Z,0.97
2019-03-20T02:42:51.620Z,0.97
2019-03-20T02:43:51.632Z,0.97
2019-03-20T02:44:51.604Z,0.96
2019-03-20T02:45:51.587Z,0.86
2019-03-20T02:46:51.573Z,0.90
2019-03-20T02:47:51.565Z,0.90
2019-03-20T02:48:51.584Z,1.00
2019-03-20T02:49:51.542Z,0.96
2019-03-20T02:50:51.536Z,0.90
2019-03-20T02:51:51.522Z,0.94
2019-03-20T02:52:51.522Z,1.03
2019-03-20T02:53:51.532Z,1.00
2019-03-20T02:54:51.495Z,0.96
2019-03-20T02:55:51.479Z,1.04
2019-03-20T02:56:51.467Z,0.96
2019-03-20T02:57:51.459Z,0.83
2019-03-20T02:58:51.477Z,0.90
2019-03-20T02:59:51.471Z,1.00
2019-03-20T03:00:51.428Z,1.01
2019-03-20T03:01:51.415Z,1.03
2019-03-20T03:02:51.403Z,1.03
2019-03-20T03:03:51.425Z,0.90
2019-03-20T03:04:51.388Z,1.00
2019-03-20T03:06:05.688Z,0.92
2019-03-20T03:06:52.364Z,0.90
2019-03-20T03:07:51.401Z,0.83
2019-03-20T03:08:51.444Z,0.88
2019-03-20T03:09:51.346Z,0.92
2019-03-20T03:10:51.338Z,1.07
2019-03-20T03:11:51.312Z,1.24
2019-03-20T03:12:51.304Z,1.22
2019-03-20T03:13:51.317Z,1.21
2019-03-20T03:14:51.287Z,1.25
2019-03-20T03:15:51.278Z,1.44
2019-03-20T03:16:51.259Z,1.55
2019-03-20T03:17:51.343Z,1.61
2019-03-20T03:18:51.279Z,1.64
2019-03-20T03:19:51.230Z,1.52
2019-03-20T03:20:51.225Z,1.62
2019-03-20T03:21:51.211Z,1.44
2019-03-20T03:22:51.196Z,1.69
2019-03-20T03:23:51.217Z,1.58
2019-03-20T03:24:51.196Z,1.55
2019-03-20T03:25:51.166Z,1.54
2019-03-20T03:26:51.147Z,1.42
2019-03-20T03:27:51.156Z,1.44
2019-03-20T03:28:51.159Z,1.37
2019-03-20T03:29:51.123Z,1.28
2019-03-20T03:30:51.119Z,1.26
2019-03-20T03:31:51.111Z,1.26
2019-03-20T03:32:51.095Z,1.22
2019-03-20T03:33:51.117Z,1.21
2019-03-20T03:34:51.073Z,1.16
2019-03-20T03:35:51.060Z,1.22
2019-03-20T03:36:51.058Z,1.16
2019-03-20T03:37:51.038Z,1.32
2019-03-20T03:38:51.056Z,1.25
2019-03-20T03:39:51.029Z,1.28
2019-03-20T03:40:51.006Z,1.21
2019-03-20T03:41:51.009Z,1.07
2019-03-20T03:42:51.031Z,1.06
2019-03-20T03:43:51.004Z,1.14
2019-03-20T03:44:50.970Z,1.10
2019-03-20T03:45:50.962Z,1.00
2019-03-20T03:46:50.952Z,1.01
2019-03-20T03:47:50.935Z,0.92
2019-03-20T03:48:50.956Z,0.94
2019-03-20T03:49:50.944Z,0.94
2019-03-20T03:50:50.906Z,0.94
2019-03-20T03:51:50.901Z,0.89
2019-03-20T03:52:50.891Z,0.75
2019-03-20T03:53:50.903Z,0.76
2019-03-20T03:54:50.886Z,0.75
2019-03-20T03:55:50.864Z,1.01
2019-03-20T03:56:50.842Z,1.01
2019-03-20T03:57:50.833Z,1.21
2019-03-20T03:58:50.833Z,1.34
2019-03-20T03:59:50.838Z,1.29
2019-03-20T04:00:50.820Z,1.32
2019-03-20T04:01:50.799Z,1.24
2019-03-20T04:02:50.779Z,1.03
2019-03-20T04:03:50.779Z,1.00
2019-03-20T04:04:50.794Z,1.00
2019-03-20T04:05:50.752Z,1.01
2019-03-20T04:06:50.747Z,0.98
2019-03-20T04:07:50.729Z,0.94
2019-03-20T04:08:50.720Z,0.90
2019-03-20T04:09:50.731Z,0.80
2019-03-20T04:10:50.707Z,0.75
2019-03-20T04:11:50.699Z,0.61
2019-03-20T04:12:50.672Z,0.61
2019-03-20T04:13:50.665Z,0.67
2019-03-20T04:14:50.689Z,0.67
2019-03-20T04:15:50.646Z,0.70
2019-03-20T04:16:50.627Z,0.78
2019-03-20T04:17:50.628Z,0.79
2019-03-20T04:18:50.616Z,0.64
2019-03-20T04:19:50.654Z,0.82
2019-03-20T04:20:50.602Z,0.68
2019-03-20T04:21:50.580Z,0.71
2019-03-20T04:22:50.584Z,0.75
2019-03-20T04:23:50.568Z,0.62
2019-03-20T04:24:50.574Z,0.71
2019-03-20T04:25:50.547Z,0.86
2019-03-20T04:26:50.551Z,0.94
2019-03-20T04:27:50.522Z,0.94
2019-03-20T04:28:50.510Z,0.94
2019-03-20T04:29:50.523Z,1.07
2019-03-20T04:30:50.497Z,1.19
2019-03-20T04:31:50.475Z,1.26
2019-03-20T04:32:50.461Z,1.33
2019-03-20T04:33:50.457Z,1.29
2019-03-20T04:34:50.477Z,1.29
2019-03-20T04:35:50.435Z,1.29
2019-03-20T04:36:50.421Z,1.46
2019-03-20T04:37:50.422Z,1.34
2019-03-20T04:38:50.409Z,1.28
2019-03-20T04:39:50.414Z,1.36
2019-03-20T04:40:50.397Z,1.37
2019-03-20T04:41:50.371Z,1.36
2019-03-20T04:42:50.354Z,1.39
2019-03-20T04:43:50.352Z,1.33
2019-03-20T04:44:50.368Z,1.50
2019-03-20T04:45:50.333Z,1.42
2019-03-20T04:46:50.325Z,1.44
2019-03-20T04:47:50.309Z,1.34
2019-03-20T04:48:50.302Z,1.51
2019-03-20T04:49:50.311Z,1.52
2019-03-20T04:50:50.279Z,1.51
2019-03-20T04:51:50.266Z,1.32
2019-03-20T04:52:50.267Z,1.42
2019-03-20T04:53:50.277Z,1.36
2019-03-20T04:54:50.378Z,1.32
2019-03-20T04:55:50.330Z,1.37
2019-03-20T04:56:50.291Z,1.32
2019-03-20T04:57:50.203Z,1.34
2019-03-20T04:58:50.210Z,1.33
2019-03-20T04:59:50.247Z,1.24
2019-03-20T05:00:50.209Z,1.15
2019-03-20T05:01:50.246Z,1.03
2019-03-20T05:02:50.170Z,1.01
2019-03-20T05:03:50.174Z,1.06
2019-03-20T05:04:50.249Z,1.01
2019-03-20T05:05:50.122Z,0.92
2019-03-20T05:06:58.355Z,1.03
2019-03-20T05:07:51.099Z,1.16
2019-03-20T05:08:50.091Z,1.19
2019-03-20T05:09:50.111Z,1.21
2019-03-20T05:10:50.071Z,1.19
2019-03-20T05:11:50.055Z,1.26
2019-03-20T05:12:50.050Z,1.22
2019-03-20T05:13:50.039Z,1.22
2019-03-20T05:14:50.067Z,1.22
2019-03-20T05:15:50.015Z,1.32
2019-03-20T05:17:49.556Z,1.61
2019-03-20T05:18:49.560Z,1.75
2019-03-20T05:19:49.554Z,1.85
2019-03-20T05:20:49.524Z,1.89
2019-03-20T05:21:49.502Z,1.90
2019-03-20T05:22:49.499Z,1.82
2019-03-20T05:23:49.484Z,1.91
2019-03-20T05:24:49.496Z,1.90
2019-03-20T05:25:49.464Z,2.06
2019-03-20T05:26:49.471Z,1.91
2019-03-20T05:27:49.435Z,1.83
2019-03-20T05:28:49.423Z,1.87
2019-03-20T05:29:49.442Z,1.97
2019-03-20T05:30:49.407Z,1.90
2019-03-20T05:31:49.400Z,1.83
2019-03-20T05:32:49.386Z,1.87
2019-03-20T05:33:49.381Z,1.80
2019-03-20T05:34:49.393Z,1.79
2019-03-20T05:35:49.351Z,1.87
2019-03-20T05:36:49.368Z,1.87
2019-03-20T05:37:49.331Z,1.83
2019-03-20T05:38:49.319Z,1.87
2019-03-20T05:39:49.371Z,1.83
2019-03-20T05:40:49.300Z,1.82
2019-03-20T05:41:49.288Z,1.79
2019-03-20T05:42:49.280Z,1.75
2019-03-20T05:43:49.268Z,1.76
2019-03-20T05:44:49.289Z,1.85
2019-03-20T05:45:49.245Z,2.04
2019-03-20T05:46:49.239Z,2.01
2019-03-20T05:47:49.228Z,2.10
2019-03-20T05:48:49.217Z,2.22
2019-03-20T05:49:49.229Z,2.45
2019-03-20T05:50:49.196Z,2.84
2019-03-20T05:51:49.180Z,2.98
2019-03-20T05:52:49.175Z,3.21
2019-03-20T05:53:49.162Z,3.34
2019-03-20T05:54:49.190Z,3.61
2019-03-20T05:55:49.140Z,3.79
2019-03-20T05:56:49.127Z,3.70
2019-03-20T05:57:49.119Z,3.79
2019-03-20T05:58:49.111Z,3.86
2019-03-20T05:59:49.107Z,3.92
2019-03-20T06:00:49.127Z,3.96
2019-03-20T06:01:49.090Z,4.24
2019-03-20T06:02:49.075Z,4.43
2019-03-20T06:03:49.055Z,4.59
2019-03-20T06:04:49.047Z,4.70
2019-03-20T06:05:49.060Z,4.80
2019-03-20T06:06:49.025Z,4.89
2019-03-20T06:07:49.015Z,5.10
2019-03-20T06:08:49.005Z,5.10
2019-03-20T06:09:48.994Z,5.38
2019-03-20T06:10:49.008Z,5.59
2019-03-20T06:11:48.968Z,5.49
2019-03-20T06:12:48.964Z,5.73
2019-03-20T06:13:48.951Z,5.77
2019-03-20T06:14:48.935Z,5.89
2019-03-20T06:15:48.958Z,6.16
2019-03-20T06:16:48.919Z,6.44
2019-03-20T06:17:48.903Z,6.53
2019-03-20T06:18:48.892Z,6.73
2019-03-20T06:19:48.880Z,6.94
2019-03-20T06:20:48.906Z,6.97
2019-03-20T06:21:48.863Z,7.12
2019-03-20T06:22:48.847Z,6.99
2019-03-20T06:23:48.840Z,6.84
2019-03-20T06:24:48.827Z,7.12
2019-03-20T06:25:51.326Z,7.38
2019-03-20T06:26:48.814Z,7.60
2019-03-20T06:27:48.798Z,7.72
2019-03-20T06:28:48.786Z,7.50
2019-03-20T06:29:48.800Z,7.19
2019-03-20T06:30:48.790Z,7.41
2019-03-20T06:31:48.751Z,7.47
2019-03-20T06:32:48.743Z,7.62
2019-03-20T06:33:48.733Z,7.53
2019-03-20T06:34:49.013Z,7.26
2019-03-20T06:35:48.735Z,6.84
2019-03-20T06:36:49.134Z,7.34
2019-03-20T06:37:48.706Z,7.34
2019-03-20T06:38:48.678Z,7.81
2019-03-20T06:39:48.668Z,7.93
2019-03-20T06:40:48.687Z,8.51
2019-03-20T06:41:48.654Z,8.22
2019-03-20T06:42:48.639Z,8.62
2019-03-20T06:43:48.635Z,8.75
2019-03-20T06:44:48.614Z,8.20
2019-03-20T06:45:48.632Z,7.97
2019-03-20T06:46:48.599Z,8.08
2019-03-20T06:47:48.585Z,8.11
2019-03-20T06:48:48.605Z,8.10
2019-03-20T06:49:48.567Z,8.42
2019-03-20T06:50:48.585Z,9.21
2019-03-20T06:51:48.572Z,9.57
2019-03-20T06:52:48.530Z,10.01
2019-03-20T06:53:48.525Z,10.00
2019-03-20T06:54:48.508Z,10.46
2019-03-20T06:55:48.543Z,10.33
2019-03-20T06:56:48.488Z,10.07
2019-03-20T06:57:48.519Z,9.94
2019-03-20T06:58:48.467Z,10.34
2019-03-20T06:59:48.483Z,9.48
2019-03-20T07:00:48.481Z,10.14
2019-03-20T07:01:48.457Z,10.53
2019-03-20T07:02:48.429Z,11.06
2019-03-20T07:03:48.410Z,10.73
2019-03-20T07:04:48.401Z,10.62
2019-03-20T07:05:48.415Z,10.56
2019-03-20T07:06:48.381Z,10.65
2019-03-20T07:07:48.368Z,10.84
2019-03-20T07:08:48.387Z,10.99
2019-03-20T07:09:48.352Z,11.24
2019-03-20T07:10:48.358Z,11.35
2019-03-20T07:11:48.328Z,11.67
2019-03-20T07:12:48.318Z,11.31
2019-03-20T07:13:50.532Z,11.72
2019-03-20T07:14:48.291Z,11.96
2019-03-20T07:15:48.313Z,12.12
2019-03-20T07:16:48.277Z,11.27
2019-03-20T07:17:48.263Z,11.67
2019-03-20T07:18:48.248Z,11.62
2019-03-20T07:19:48.239Z,11.25
2019-03-20T07:20:48.261Z,11.47
2019-03-20T07:21:48.218Z,11.36
2019-03-20T07:22:48.211Z,11.75
2019-03-20T07:23:48.205Z,11.31
2019-03-20T07:24:48.183Z,11.90
2019-03-20T07:25:48.198Z,12.34
2019-03-20T07:26:48.167Z,12.46
2019-03-20T07:27:48.155Z,12.20
2019-03-20T07:28:48.150Z,12.11
2019-03-20T07:29:48.146Z,11.49
2019-03-20T07:30:48.190Z,11.52
2019-03-20T07:31:48.117Z,11.80
2019-03-20T07:32:48.100Z,12.01
2019-03-20T07:33:48.091Z,11.96
2019-03-20T07:34:48.086Z,11.96
2019-03-20T07:35:48.112Z,11.59
2019-03-20T07:36:48.056Z,12.19
2019-03-20T07:37:55.925Z,12.39
2019-03-20T07:38:49.069Z,12.62
2019-03-20T07:39:48.028Z,12.93
2019-03-20T07:40:48.035Z,12.24
2019-03-20T07:41:48.001Z,12.66
2019-03-20T07:42:47.987Z,12.60
2019-03-20T07:43:47.982Z,12.71
2019-03-20T07:44:47.969Z,12.88
2019-03-20T07:45:47.985Z,13.46
2019-03-20T07:46:47.954Z,13.37
2019-03-20T07:47:47.935Z,13.79
2019-03-20T07:48:47.938Z,13.59
2019-03-20T07:49:47.921Z,13.20
2019-03-20T07:50:47.965Z,13.33
2019-03-20T07:51:47.960Z,13.49
2019-03-20T07:52:47.899Z,14.31
2019-03-20T07:53:47.883Z,13.59
2019-03-20T07:54:47.878Z,13.98
2019-03-20T07:55:47.853Z,13.89
2019-03-20T07:56:47.951Z,13.70
2019-03-20T07:57:47.829Z,13.84
2019-03-20T07:58:47.820Z,13.14
2019-03-20T07:59:47.812Z,13.00
2019-03-20T08:00:47.810Z,13.84
2019-03-20T08:01:47.834Z,14.69
2019-03-20T08:02:47.777Z,14.54
2019-03-20T08:03:47.772Z,14.78
2019-03-20T08:04:47.750Z,14.78
2019-03-20T08:05:47.748Z,15.02
2019-03-20T08:06:47.760Z,15.20
2019-03-20T08:07:47.722Z,15.11
2019-03-20T08:08:47.711Z,15.85
2019-03-20T08:09:47.701Z,15.20
2019-03-20T08:10:47.693Z,15.79
2019-03-20T08:11:47.707Z,16.26
2019-03-20T08:12:47.669Z,16.55
2019-03-20T08:13:47.659Z,16.01
2019-03-20T08:14:47.655Z,14.65
2019-03-20T08:15:47.641Z,13.52
2019-03-20T08:16:47.655Z,13.02
2019-03-20T08:17:47.618Z,13.52
2019-03-20T08:18:47.607Z,13.80
2019-03-20T08:19:47.591Z,13.61
2019-03-20T08:20:47.579Z,13.55
2019-03-20T08:21:47.598Z,13.14
2019-03-20T08:22:47.560Z,13.15
2019-03-20T08:23:47.552Z,12.75
2019-03-20T08:24:47.539Z,12.34
2019-03-20T08:25:47.525Z,11.82
2019-03-20T08:26:47.539Z,11.86
2019-03-20T08:27:47.507Z,11.62
2019-03-20T08:28:47.492Z,11.31
2019-03-20T08:29:47.484Z,11.11
2019-03-20T08:30:47.473Z,11.06
2019-03-20T08:31:47.488Z,11.17
2019-03-20T08:32:47.456Z,10.99
2019-03-20T08:33:47.436Z,11.14
2019-03-20T08:34:47.429Z,11.13
2019-03-20T08:35:47.458Z,10.86
2019-03-20T08:36:47.438Z,10.91
2019-03-20T08:37:47.404Z,11.11
2019-03-20T08:38:47.386Z,13.04
2019-03-20T08:39:47.372Z,14.27
2019-03-20T08:40:47.375Z,14.25
2019-03-20T08:41:47.379Z,14.37
2019-03-20T08:42:47.339Z,14.16
2019-03-20T08:43:47.340Z,13.47
2019-03-20T08:44:47.321Z,13.22
2019-03-20T08:45:47.307Z,14.38
2019-03-20T08:46:47.330Z,14.78
2019-03-20T08:47:47.286Z,14.80
2019-03-20T08:48:48.454Z,14.61
2019-03-20T08:49:47.270Z,14.71
2019-03-20T08:50:47.265Z,15.20
2019-03-20T08:51:47.275Z,15.78
2019-03-20T08:52:47.245Z,15.94
2019-03-20T08:53:47.225Z,15.67
2019-03-20T08:54:47.216Z,15.75
2019-03-20T08:55:47.205Z,16.48
2019-03-20T08:56:47.223Z,16.18
2019-03-20T08:57:47.179Z,15.39
2019-03-20T08:58:47.168Z,15.63
2019-03-20T08:59:47.162Z,14.93
2019-03-20T09:00:47.151Z,14.94
2019-03-20T09:01:47.167Z,15.30
2019-03-20T09:02:47.127Z,15.84
2019-03-20T09:03:47.114Z,16.33
2019-03-20T09:04:47.102Z,16.67
2019-03-20T09:05:47.083Z,16.92
2019-03-20T09:06:47.124Z,16.58
2019-03-20T09:07:47.755Z,16.73
2019-03-20T09:08:47.057Z,16.65
2019-03-20T09:09:47.050Z,16.56
2019-03-20T09:10:47.037Z,16.90
2019-03-20T09:11:47.031Z,16.40
2019-03-20T09:12:47.046Z,16.38
2019-03-20T09:13:47.021Z,16.03
2019-03-20T09:14:46.995Z,16.38
2019-03-20T09:15:46.985Z,16.52
2019-03-20T09:16:46.972Z,16.35
2019-03-20T09:17:46.993Z,16.04
2019-03-20T09:18:46.960Z,15.78
2019-03-20T09:19:46.940Z,15.75
2019-03-20T09:20:46.929Z,15.36
2019-03-20T09:21:46.930Z,15.06
2019-03-20T09:22:46.931Z,15.76
2019-03-20T09:23:46.900Z,15.75
2019-03-20T09:24:46.887Z,16.06
2019-03-20T09:25:46.876Z,15.68
2019-03-20T09:26:46.859Z,16.09
2019-03-20T09:27:46.877Z,16.33
2019-03-20T09:28:46.845Z,16.85
2019-03-20T09:29:46.833Z,16.50
2019-03-20T09:30:46.830Z,16.40
2019-03-20T09:31:46.810Z,15.81
2019-03-20T09:32:46.833Z,16.03
2019-03-20T09:33:46.814Z,15.88
2019-03-20T09:34:46.778Z,16.23
2019-03-20T09:35:46.773Z,16.53
2019-03-20T09:36:46.762Z,15.92
2019-03-20T09:37:51.968Z,16.27
2019-03-20T09:38:47.736Z,16.41
2019-03-20T09:39:46.721Z,16.34
2019-03-20T09:40:46.713Z,16.04
2019-03-20T09:41:46.708Z,16.20
2019-03-20T09:42:46.720Z,16.38
2019-03-20T09:43:46.679Z,16.50
2019-03-20T09:44:46.671Z,17.08
2019-03-20T09:45:46.658Z,17.57
2019-03-20T09:46:46.650Z,17.87
2019-03-20T09:47:46.659Z,17.97
2019-03-20T09:48:46.628Z,18.18
2019-03-20T09:49:46.615Z,17.33
2019-03-20T09:50:46.604Z,17.50
2019-03-20T09:51:46.627Z,17.35
2019-03-20T09:52:46.607Z,16.92
2019-03-20T09:53:46.578Z,17.53
2019-03-20T09:54:46.568Z,17.79
2019-03-20T09:55:46.553Z,18.07
2019-03-20T09:56:46.543Z,18.62
2019-03-20T09:57:46.557Z,19.29
2019-03-20T09:58:46.562Z,19.18
2019-03-20T09:59:46.510Z,18.42
2019-03-20T10:00:46.497Z,18.91
2019-03-20T10:01:46.497Z,19.15
2019-03-20T10:02:46.500Z,18.77
2019-03-20T10:03:46.469Z,17.82
2019-03-20T10:04:46.461Z,17.48
2019-03-20T10:05:46.449Z,17.04
2019-03-20T10:06:46.435Z,17.36
2019-03-20T10:07:46.447Z,17.48
2019-03-20T10:08:53.750Z,17.71
2019-03-20T10:09:47.418Z,17.78
2019-03-20T10:10:46.390Z,17.29
2019-03-20T10:11:46.379Z,17.00
2019-03-20T10:12:46.395Z,17.00
2019-03-20T10:13:46.361Z,17.40
2019-03-20T10:14:46.340Z,17.82
2019-03-20T10:15:46.335Z,18.57
2019-03-20T10:16:46.324Z,18.61
2019-03-20T10:17:46.341Z,18.61
2019-03-20T10:18:46.295Z,18.39
2019-03-20T10:19:46.293Z,18.04
2019-03-20T10:20:46.280Z,18.43
2019-03-20T10:21:46.266Z,18.29
2019-03-20T10:22:46.276Z,18.50
2019-03-20T10:23:46.243Z,17.99
2019-03-20T10:24:46.229Z,18.49
2019-03-20T10:25:46.226Z,18.67
2019-03-20T10:26:46.214Z,18.54
2019-03-20T10:27:46.227Z,18.34
2019-03-20T10:28:46.183Z,18.99
2019-03-20T10:29:46.178Z,18.95
2019-03-20T10:30:46.166Z,17.78
2019-03-20T10:31:46.154Z,17.29
2019-03-20T10:32:46.175Z,17.14
2019-03-20T10:33:46.140Z,17.64
2019-03-20T10:34:46.130Z,17.00
2019-03-20T10:35:50.328Z,17.22
2019-03-20T10:36:46.104Z,17.46
2019-03-20T10:37:46.122Z,17.59
2019-03-20T10:38:48.630Z,17.99
2019-03-20T10:39:46.134Z,18.18
2019-03-20T10:40:46.062Z,18.10
2019-03-20T10:41:46.050Z,18.61
2019-03-20T10:42:46.063Z,18.79
2019-03-20T10:43:46.028Z,18.44
2019-03-20T10:44:46.027Z,18.34
2019-03-20T10:45:46.012Z,19.10
2019-03-20T10:46:45.996Z,19.47
2019-03-20T10:47:46.009Z,19.06
2019-03-20T10:48:45.978Z,19.08
2019-03-20T10:49:45.964Z,18.74
2019-03-20T10:50:45.954Z,18.31
2019-03-20T10:51:45.942Z,18.49
2019-03-20T10:52:45.937Z,18.64
2019-03-20T10:53:45.955Z,18.10
2019-03-20T10:54:45.914Z,18.03
2019-03-20T10:55:45.909Z,18.21
2019-03-20T10:56:45.888Z,17.64
2019-03-20T10:57:45.883Z,17.89
2019-03-20T10:58:45.894Z,17.99
2019-03-20T10:59:45.859Z,17.88
2019-03-20T11:00:45.855Z,17.85
2019-03-20T11:01:45.834Z,18.19
2019-03-20T11:02:45.832Z,18.21
2019-03-20T11:03:45.842Z,18.70
2019-03-20T11:04:45.809Z,19.29
2019-03-20T11:05:45.807Z,19.48
2019-03-20T11:06:45.789Z,19.75
2019-03-20T11:07:45.781Z,18.87
2019-03-20T11:08:45.793Z,18.47
2019-03-20T11:09:45.751Z,18.04
2019-03-20T11:10:45.739Z,17.41
2019-03-20T11:11:45.731Z,17.30
2019-03-20T11:12:45.720Z,17.66
2019-03-20T11:13:45.741Z,17.32
2019-03-20T11:14:45.700Z,16.90
2019-03-20T11:15:45.687Z,16.33
2019-03-20T11:16:45.680Z,16.56
2019-03-20T11:17:54.652Z,16.44
2019-03-20T11:18:48.285Z,16.38
2019-03-20T11:19:45.648Z,16.58
2019-03-20T11:20:45.651Z,16.75
2019-03-20T11:21:45.623Z,16.88
2019-03-20T11:22:45.613Z,16.99
2019-03-20T11:23:45.627Z,16.77
2019-03-20T11:24:45.596Z,16.45
2019-03-20T11:25:45.583Z,16.55
2019-03-20T11:26:45.577Z,16.88
2019-03-20T11:27:45.563Z,17.04
2019-03-20T11:28:45.582Z,17.32
2019-03-20T11:29:45.545Z,17.17
2019-03-20T11:30:45.534Z,17.07
2019-03-20T11:31:45.518Z,17.15
2019-03-20T11:32:45.504Z,17.36
2019-03-20T11:33:45.518Z,17.07
2019-03-20T11:34:45.490Z,16.96
2019-03-20T11:35:45.475Z,16.65
2019-03-20T11:36:45.462Z,16.80
2019-03-20T11:37:45.455Z,16.96
2019-03-20T11:38:45.473Z,16.98
2019-03-20T11:39:45.433Z,17.20
2019-03-20T11:40:45.418Z,17.10
2019-03-20T11:41:45.406Z,17.43
2019-03-20T11:42:45.402Z,16.99
2019-03-20T11:43:45.410Z,16.71
2019-03-20T11:44:45.371Z,16.88
2019-03-20T11:45:45.364Z,16.89
2019-03-20T11:46:45.363Z,16.68
2019-03-20T11:47:45.344Z,16.71
2019-03-20T11:48:45.355Z,17.00
2019-03-20T11:49:45.320Z,16.70
2019-03-20T11:50:45.307Z,16.50
2019-03-20T11:51:45.300Z,16.63
2019-03-20T11:52:45.295Z,16.53
2019-03-20T11:53:45.342Z,16.27
2019-03-20T11:54:45.264Z,15.92
2019-03-20T11:55:45.250Z,15.96
2019-03-20T11:56:45.239Z,16.04
2019-03-20T11:57:45.234Z,15.82
2019-03-20T11:58:45.246Z,16.04
2019-03-20T11:59:45.208Z,15.97
2019-03-20T12:00:45.195Z,16.04
2019-03-20T12:01:45.190Z,16.16
2019-03-20T12:02:45.178Z,16.27
2019-03-20T12:03:45.191Z,16.18
2019-03-20T12:04:45.159Z,16.49
2019-03-20T12:05:45.143Z,16.44
2019-03-20T12:06:45.151Z,16.63
2019-03-20T12:07:45.128Z,16.98
2019-03-20T12:08:45.202Z,17.00
2019-03-20T12:09:45.110Z,16.93
2019-03-20T12:10:45.099Z,16.65
2019-03-20T12:11:46.104Z,16.68
2019-03-20T12:12:45.074Z,16.50
2019-03-20T12:13:45.097Z,16.01
2019-03-20T12:14:45.053Z,15.81
2019-03-20T12:15:45.044Z,15.82
2019-03-20T12:16:45.032Z,15.68
2019-03-20T12:17:45.024Z,15.93
2019-03-20T12:18:45.031Z,16.01
2019-03-20T12:19:45.276Z,16.20
2019-03-20T12:20:44.990Z,15.84
2019-03-20T12:21:44.988Z,15.72
2019-03-20T12:22:44.965Z,15.88
2019-03-20T12:23:44.960Z,16.07
2019-03-20T12:24:44.973Z,16.33
2019-03-20T12:25:44.935Z,16.48
2019-03-20T12:26:44.923Z,16.52
2019-03-20T12:27:44.917Z,16.38
2019-03-20T12:28:44.907Z,16.03
2019-03-20T12:29:44.923Z,15.96
2019-03-20T12:30:44.891Z,15.99
2019-03-20T12:31:44.871Z,15.78
2019-03-20T12:32:44.863Z,15.72
2019-03-20T12:33:44.851Z,15.15
2019-03-20T12:34:44.878Z,15.15
2019-03-20T12:35:44.839Z,15.17
2019-03-20T12:36:44.815Z,14.99
2019-03-20T12:37:44.808Z,14.94
2019-03-20T12:38:44.811Z,14.53
2019-03-20T12:39:52.892Z,14.57
2019-03-20T12:40:45.771Z,14.39
2019-03-20T12:41:44.768Z,14.83
2019-03-20T12:42:44.756Z,14.90
2019-03-20T12:43:45.562Z,14.98
2019-03-20T12:44:44.760Z,15.02
2019-03-20T12:45:44.721Z,15.01
2019-03-20T12:46:44.713Z,15.09
2019-03-20T12:47:44.704Z,15.08
2019-03-20T12:48:44.693Z,15.27
2019-03-20T12:49:44.704Z,15.39
2019-03-20T12:50:44.687Z,15.38
2019-03-20T12:51:44.655Z,15.39
2019-03-20T12:52:44.677Z,15.28
2019-03-20T12:53:44.637Z,15.17
2019-03-20T12:54:44.659Z,15.31
2019-03-20T12:55:44.617Z,15.35
2019-03-20T12:56:44.603Z,15.43
2019-03-20T12:57:44.590Z,15.03
2019-03-20T12:58:44.584Z,14.84
2019-03-20T12:59:44.595Z,14.68
2019-03-20T13:01:16.242Z,14.81
2019-03-20T13:02:16.225Z,14.64
2019-03-20T13:03:16.222Z,14.67
2019-03-20T13:04:16.229Z,14.67
2019-03-20T13:05:16.194Z,14.75
2019-03-20T13:06:16.183Z,14.67
2019-03-20T13:07:16.177Z,14.71
2019-03-20T13:08:16.163Z,14.74